createdAt,value
2022-12-18T00:02:15.927Z,68.19
2022-12-18T00:04:47.539Z,68.03
2022-12-18T00:07:19.165Z,68.13
2022-12-18T00:09:50.726Z,68.02
2022-12-18T00:12:22.311Z,68.06
2022-12-18T00:14:53.921Z,68.07
2022-12-18T00:17:25.481Z,68.03
2022-12-18T00:19:57.081Z,68.02
2022-12-18T00:22:28.728Z,68.06
2022-12-18T00:25:00.317Z,68.08
2022-12-18T00:27:31.950Z,68.11
2022-12-18T00:30:03.544Z,68.16
2022-12-18T00:32:36.316Z,68.10
2022-12-18T00:35:09.291Z,68.08
2022-12-18T00:37:40.895Z,68.14
2022-12-18T00:40:14.417Z,68.13
2022-12-18T00:42:58.412Z,68.10
2022-12-18T00:45:32.730Z,68.12
2022-12-18T00:48:04.473Z,68.12
2022-12-18T00:50:36.291Z,68.12
2022-12-18T00:53:08.358Z,68.07
2022-12-18T00:55:41.026Z,68.11
2022-12-18T00:58:13.643Z,68.12
2022-12-18T01:00:46.048Z,68.24
2022-12-18T01:03:17.942Z,68.19
2022-12-18T01:05:49.697Z,68.16
2022-12-18T01:08:21.285Z,68.14
2022-12-18T01:10:53.054Z,68.12
2022-12-18T01:13:24.679Z,68.29
2022-12-18T01:15:56.381Z,68.25
2022-12-18T01:18:28.016Z,68.17
2022-12-18T01:20:59.658Z,68.09
2022-12-18T01:23:31.253Z,68.28
2022-12-18T01:26:08.325Z,68.23
2022-12-18T01:28:41.086Z,68.34
2022-12-18T01:31:21.849Z,68.19
2022-12-18T01:33:54.488Z,68.16
2022-12-18T01:36:28.134Z,68.09
2022-12-18T01:39:01.112Z,68.05
2022-12-18T01:41:49.102Z,68.14
2022-12-18T01:45:03.823Z,68.21
2022-12-18T01:47:40.122Z,68.21
2022-12-18T01:50:15.627Z,68.18
2022-12-18T01:52:49.957Z,68.11
2022-12-18T01:55:24.799Z,67.99
2022-12-18T01:57:58.609Z,67.90
2022-12-18T02:00:30.731Z,68.05
2022-12-18T02:03:02.798Z,68.06
2022-12-18T02:05:46.249Z,68.14
2022-12-18T02:08:22.843Z,68.07
2022-12-18T02:11:07.324Z,68.10
2022-12-18T02:13:48.229Z,68.14
2022-12-18T02:16:50.595Z,68.05
2022-12-18T02:19:35.311Z,68.11
2022-12-18T02:22:16.047Z,67.97
2022-12-18T02:25:10.055Z,68.08
2022-12-18T02:27:42.577Z,68.06
2022-12-18T02:30:14.525Z,68.09
2022-12-18T02:32:51.833Z,68.11
2022-12-18T02:35:26.669Z,68.12
2022-12-18T02:38:02.369Z,68.16
2022-12-18T02:40:34.163Z,68.19
2022-12-18T02:43:11.237Z,68.24
2022-12-18T02:45:52.699Z,68.09
2022-12-18T02:48:28.030Z,68.24
2022-12-18T02:51:06.259Z,68.25
2022-12-18T02:53:46.155Z,68.26
2022-12-18T02:56:24.713Z,68.30
2022-12-18T02:59:24.997Z,68.34
2022-12-18T03:02:01.235Z,68.35
2022-12-18T03:04:39.259Z,68.27
2022-12-18T03:07:21.276Z,68.27
2022-12-18T03:09:58.123Z,68.23
2022-12-18T03:12:34.008Z,68.26
2022-12-18T03:15:17.625Z,68.25
2022-12-18T03:17:54.616Z,68.19
2022-12-18T03:20:54.018Z,68.19
2022-12-18T03:23:27.966Z,68.18
2022-12-18T03:26:07.421Z,68.10
2022-12-18T03:28:44.095Z,68.21
2022-12-18T03:31:27.013Z,68.22
2022-12-18T03:34:03.705Z,68.28
2022-12-18T03:36:35.499Z,68.19
2022-12-18T03:39:08.128Z,68.22
2022-12-18T03:42:25.914Z,68.24
2022-12-18T03:45:17.028Z,68.29
2022-12-18T03:48:00.720Z,68.38
2022-12-18T03:50:39.981Z,68.35
2022-12-18T03:53:22.528Z,68.22
2022-12-18T03:55:55.779Z,68.31
2022-12-18T03:58:29.889Z,68.27
2022-12-18T04:01:05.924Z,68.32
2022-12-18T04:03:38.616Z,68.38
2022-12-18T04:06:12.135Z,68.24
2022-12-18T04:08:44.779Z,68.41
2022-12-18T04:11:18.657Z,68.62
2022-12-18T04:13:50.348Z,68.49
2022-12-18T04:16:23.816Z,68.47
2022-12-18T04:18:57.005Z,68.55
2022-12-18T04:21:28.764Z,68.56
2022-12-18T04:24:00.398Z,68.49
2022-12-18T04:26:32.114Z,68.40
2022-12-18T04:29:03.871Z,68.45
2022-12-18T04:31:35.662Z,68.49
2022-12-18T04:34:07.565Z,68.45
2022-12-18T04:36:39.179Z,68.41
2022-12-18T04:39:11.271Z,68.36
2022-12-18T04:41:43.076Z,68.43
2022-12-18T04:44:23.425Z,68.41
2022-12-18T04:47:16.224Z,68.46
2022-12-18T04:49:53.021Z,68.45
2022-12-18T04:52:25.886Z,68.56
2022-12-18T04:54:57.508Z,68.59
2022-12-18T04:57:29.280Z,68.44
2022-12-18T05:00:00.995Z,68.35
2022-12-18T05:02:35.639Z,68.53
2022-12-18T05:05:08.834Z,68.51
2022-12-18T05:08:01.250Z,68.56
2022-12-18T05:10:37.988Z,68.42
2022-12-18T05:13:12.819Z,68.37
2022-12-18T05:15:44.603Z,68.32
2022-12-18T05:18:16.432Z,68.43
2022-12-18T05:20:50.986Z,68.42
2022-12-18T05:23:26.218Z,68.30
2022-12-18T05:25:59.429Z,68.28
2022-12-18T05:28:33.016Z,68.36
2022-12-18T05:31:25.580Z,68.39
2022-12-18T05:33:57.325Z,68.38
2022-12-18T05:36:51.686Z,68.50
2022-12-18T05:39:54.850Z,68.51
2022-12-18T05:42:18.759Z,68.48
2022-12-18T05:44:50.345Z,68.55
2022-12-18T05:47:22.179Z,68.53
2022-12-18T05:49:53.797Z,68.50
2022-12-18T05:52:30.492Z,68.53
2022-12-18T05:55:06.450Z,68.59
2022-12-18T05:57:38.142Z,68.56
2022-12-18T06:00:12.384Z,68.67
2022-12-18T06:02:44.030Z,68.65
2022-12-18T06:05:15.837Z,68.72
2022-12-18T06:07:47.615Z,68.67
2022-12-18T06:10:19.386Z,68.68
2022-12-18T06:12:51.265Z,68.68
2022-12-18T06:15:23.060Z,68.68
2022-12-18T06:17:57.337Z,68.60
2022-12-18T06:20:33.677Z,68.65
2022-12-18T06:23:05.823Z,68.61
2022-12-18T06:25:39.061Z,68.45
2022-12-18T06:28:11.004Z,68.48
2022-12-18T06:30:45.128Z,68.51
2022-12-18T06:33:19.739Z,68.59
2022-12-18T06:35:52.203Z,68.53
2022-12-18T06:38:26.011Z,68.46
2022-12-18T06:41:00.688Z,68.66
2022-12-18T06:43:58.167Z,68.58
2022-12-18T06:46:45.311Z,68.67
2022-12-18T06:49:16.996Z,68.58
2022-12-18T06:51:54.190Z,68.63
2022-12-18T06:55:14.132Z,68.52
2022-12-18T06:57:34.404Z,68.50
2022-12-18T07:00:08.104Z,68.46
2022-12-18T07:02:39.999Z,68.53
2022-12-18T07:05:12.375Z,68.50
2022-12-18T07:07:44.024Z,68.43
2022-12-18T07:10:15.674Z,68.59
2022-12-18T07:12:47.499Z,68.44
2022-12-18T07:15:21.746Z,68.55
2022-12-18T07:17:56.199Z,68.44
2022-12-18T07:20:50.333Z,68.54
2022-12-18T07:23:45.195Z,68.46
2022-12-18T07:26:31.507Z,68.49
2022-12-18T07:29:04.270Z,68.30
2022-12-18T07:31:36.009Z,68.34
2022-12-18T07:34:30.702Z,68.41
2022-12-18T07:36:59.982Z,68.40
2022-12-18T07:39:34.683Z,68.34
2022-12-18T07:42:32.384Z,68.29
2022-12-18T07:45:04.819Z,68.24
2022-12-18T07:47:37.960Z,68.22
2022-12-18T07:50:10.707Z,68.03
2022-12-18T07:52:42.495Z,68.08
2022-12-18T07:55:14.221Z,68.04
2022-12-18T07:57:51.283Z,68.09
2022-12-18T08:00:24.406Z,68.16
2022-12-18T08:02:56.130Z,68.27
2022-12-18T08:05:28.245Z,68.27
2022-12-18T08:08:00.242Z,68.31
2022-12-18T08:10:31.831Z,68.14
2022-12-18T08:13:05.289Z,68.27
2022-12-18T08:15:37.047Z,68.20
2022-12-18T08:18:13.911Z,67.99
2022-12-18T08:20:46.080Z,67.91
2022-12-18T08:23:17.930Z,67.91
2022-12-18T08:25:49.786Z,67.83
2022-12-18T08:28:21.623Z,68.19
2022-12-18T08:30:56.365Z,68.03
2022-12-18T08:33:28.346Z,67.82
2022-12-18T08:35:59.976Z,67.78
2022-12-18T08:38:32.146Z,67.65
2022-12-18T08:41:05.477Z,67.43
2022-12-18T08:43:52.982Z,67.38
2022-12-18T08:46:26.711Z,67.17
2022-12-18T08:48:58.365Z,67.30
2022-12-18T08:51:30.068Z,67.18
2022-12-18T08:54:01.716Z,67.22
2022-12-18T08:56:33.969Z,67.26
2022-12-18T08:59:06.223Z,67.28
2022-12-18T09:01:37.982Z,67.01
2022-12-18T09:04:09.748Z,67.05
2022-12-18T09:06:41.679Z,66.88
2022-12-18T09:09:14.141Z,66.78
2022-12-18T09:11:45.829Z,66.80
2022-12-18T09:14:17.419Z,66.68
2022-12-18T09:16:49.033Z,66.75
2022-12-18T09:19:20.673Z,66.66
2022-12-18T09:21:52.315Z,66.84
2022-12-18T09:24:31.349Z,66.79
2022-12-18T09:27:03.004Z,66.83
2022-12-18T09:29:34.915Z,66.81
2022-12-18T09:32:07.079Z,66.73
2022-12-18T09:34:38.874Z,66.91
2022-12-18T09:37:10.683Z,66.92
2022-12-18T09:39:43.024Z,66.86
2022-12-18T09:42:22.909Z,66.77
2022-12-18T09:44:56.285Z,66.69
2022-12-18T09:47:29.710Z,66.83
2022-12-18T09:50:04.488Z,66.89
2022-12-18T09:52:40.054Z,66.77
2022-12-18T09:55:18.555Z,66.65
2022-12-18T09:57:54.443Z,66.74
2022-12-18T10:00:27.496Z,66.67
2022-12-18T10:03:05.534Z,66.63
2022-12-18T10:05:44.674Z,66.71
2022-12-18T10:08:24.668Z,66.53
2022-12-18T10:11:00.105Z,66.55
2022-12-18T10:13:36.745Z,66.60
2022-12-18T10:16:16.344Z,66.41
2022-12-18T10:19:03.506Z,66.18
2022-12-18T10:21:40.785Z,66.09
2022-12-18T10:24:30.959Z,66.07
2022-12-18T10:27:14.669Z,65.79
2022-12-18T10:29:46.244Z,65.77
2022-12-18T10:32:23.124Z,65.89
2022-12-18T10:35:00.094Z,65.90
2022-12-18T10:37:33.328Z,65.94
2022-12-18T10:40:21.503Z,65.91
2022-12-18T10:43:14.722Z,65.71
2022-12-18T10:46:02.459Z,65.53
2022-12-18T10:48:35.833Z,65.44
2022-12-18T10:51:12.157Z,65.21
2022-12-18T10:53:54.043Z,65.19
2022-12-18T10:56:27.201Z,64.96
2022-12-18T10:59:04.954Z,65.06
2022-12-18T11:01:55.888Z,65.13
2022-12-18T11:04:30.233Z,65.06
2022-12-18T11:07:04.916Z,65.10
2022-12-18T11:09:38.139Z,64.65
2022-12-18T11:12:19.998Z,64.66
2022-12-18T11:14:54.118Z,64.58
2022-12-18T11:17:31.159Z,64.61
2022-12-18T11:20:04.621Z,64.86
2022-12-18T11:22:39.185Z,64.97
2022-12-18T11:25:35.676Z,64.89
2022-12-18T11:28:26.535Z,64.89
2022-12-18T11:31:18.681Z,64.94
2022-12-18T11:34:27.550Z,64.75
2022-12-18T11:36:52.041Z,64.78
2022-12-18T11:39:33.508Z,64.85
2022-12-18T11:42:12.513Z,64.83
2022-12-18T11:44:50.688Z,64.51
2022-12-18T11:47:30.677Z,64.65
2022-12-18T11:50:08.086Z,64.56
2022-12-18T11:52:42.735Z,64.62
2022-12-18T11:55:18.522Z,64.66
2022-12-18T11:57:59.820Z,64.82
2022-12-18T12:00:31.621Z,64.87
2022-12-18T12:03:19.579Z,64.58
2022-12-18T12:06:07.071Z,64.27
2022-12-18T12:08:53.313Z,64.01
2022-12-18T12:11:31.693Z,64.28
2022-12-18T12:14:19.366Z,64.34
2022-12-18T12:16:59.172Z,64.40
2022-12-18T12:19:45.576Z,64.52
2022-12-18T12:22:26.532Z,64.54
2022-12-18T12:25:23.060Z,64.17
2022-12-18T12:28:03.291Z,64.38
2022-12-18T12:30:43.563Z,64.34
2022-12-18T12:33:29.846Z,64.32
2022-12-18T12:36:11.832Z,64.41
2022-12-18T12:38:52.378Z,64.39
2022-12-18T12:41:45.490Z,64.22
2022-12-18T12:44:24.224Z,64.06
2022-12-18T12:47:00.408Z,64.15
2022-12-18T12:49:40.557Z,64.28
2022-12-18T12:52:17.828Z,64.23
2022-12-18T12:54:51.745Z,64.25
2022-12-18T12:57:32.652Z,64.24
2022-12-18T13:00:08.980Z,64.17
2022-12-18T13:02:47.224Z,64.18
2022-12-18T13:05:26.288Z,64.10
2022-12-18T13:08:21.582Z,64.04
2022-12-18T13:11:14.737Z,63.95
2022-12-18T13:13:56.997Z,64.10
2022-12-18T13:16:30.177Z,63.92
2022-12-18T13:19:02.114Z,63.99
2022-12-18T13:21:35.313Z,64.03
2022-12-18T13:24:24.482Z,64.02
2022-12-18T13:26:56.721Z,63.98
2022-12-18T13:29:48.139Z,64.05
2022-12-18T13:32:25.183Z,64.09
2022-12-18T13:35:32.227Z,64.07
2022-12-18T13:38:24.341Z,64.02
2022-12-18T13:41:01.669Z,64.13
2022-12-18T13:43:38.338Z,64.08
2022-12-18T13:46:24.690Z,64.06
2022-12-18T13:49:00.297Z,64.04
2022-12-18T13:51:34.079Z,64.15
2022-12-18T13:54:16.224Z,64.17
2022-12-18T13:56:49.810Z,64.10
2022-12-18T13:59:25.049Z,64.18
2022-12-18T14:01:59.843Z,64.15
2022-12-18T14:04:36.530Z,64.13
2022-12-18T14:07:13.622Z,64.09
2022-12-18T14:09:49.914Z,64.15
2022-12-18T14:12:43.374Z,64.19
2022-12-18T14:15:31.730Z,64.28
2022-12-18T14:18:11.793Z,64.24
2022-12-18T14:20:52.128Z,64.18
2022-12-18T14:23:36.257Z,64.26
2022-12-18T14:26:30.070Z,64.25
2022-12-18T14:29:03.072Z,64.31
2022-12-18T14:31:34.832Z,64.23
2022-12-18T14:34:06.443Z,64.26
2022-12-18T14:36:40.972Z,64.25
2022-12-18T14:39:35.553Z,64.24
2022-12-18T14:42:07.559Z,64.28
2022-12-18T14:44:50.736Z,64.34
2022-12-18T14:47:29.365Z,64.27
2022-12-18T14:50:01.877Z,64.30
2022-12-18T14:52:35.288Z,64.37
2022-12-18T14:55:05.659Z,64.33
2022-12-18T14:57:43.200Z,64.33
2022-12-18T15:00:21.189Z,64.27
2022-12-18T15:02:55.455Z,64.23
2022-12-18T15:05:31.234Z,64.21
2022-12-18T15:08:04.139Z,64.25
2022-12-18T15:10:36.600Z,64.35
2022-12-18T15:13:22.540Z,64.25
2022-12-18T15:15:55.562Z,64.36
2022-12-18T15:18:32.217Z,64.36
2022-12-18T15:21:12.312Z,64.37
2022-12-18T15:23:53.349Z,64.38
2022-12-18T15:26:25.612Z,64.48
2022-12-18T15:28:59.525Z,64.37
2022-12-18T15:31:35.870Z,64.26
2022-12-18T15:34:26.232Z,64.22
2022-12-18T15:36:58.075Z,64.17
2022-12-18T15:39:30.368Z,64.16
2022-12-18T15:42:25.403Z,64.26
2022-12-18T15:44:57.023Z,64.24
2022-12-18T15:47:29.292Z,64.06
2022-12-18T15:50:00.877Z,64.10
2022-12-18T15:52:33.809Z,63.87
2022-12-18T15:55:23.268Z,63.82
2022-12-18T15:57:54.973Z,63.80
2022-12-18T16:00:26.581Z,63.76
2022-12-18T16:02:58.355Z,63.90
2022-12-18T16:05:31.844Z,63.71
2022-12-18T16:08:01.932Z,63.73
2022-12-18T16:10:33.736Z,63.70
2022-12-18T16:13:05.390Z,63.70
2022-12-18T16:15:37.345Z,63.55
2022-12-18T16:18:09.158Z,63.55
2022-12-18T16:20:41.763Z,63.38
2022-12-18T16:23:13.348Z,63.31
2022-12-18T16:25:45.059Z,63.41
2022-12-18T16:28:16.740Z,63.20
2022-12-18T16:30:49.002Z,63.28
2022-12-18T16:33:20.713Z,63.07
2022-12-18T16:35:56.181Z,63.12
2022-12-18T16:38:28.019Z,63.04
2022-12-18T16:41:17.361Z,62.95
2022-12-18T16:43:54.671Z,63.07
2022-12-18T16:46:26.687Z,63.08
2022-12-18T16:49:00.740Z,63.11
2022-12-18T16:51:36.301Z,63.15
2022-12-18T16:54:10.998Z,63.00
2022-12-18T16:56:45.300Z,63.04
2022-12-18T16:59:17.086Z,62.97
2022-12-18T17:01:49.810Z,63.04
2022-12-18T17:04:21.590Z,62.81
2022-12-18T17:06:53.979Z,63.00
2022-12-18T17:09:26.273Z,62.77
2022-12-18T17:11:58.054Z,62.87
2022-12-18T17:14:29.854Z,62.82
2022-12-18T17:19:53.791Z,62.63
2022-12-18T17:22:25.420Z,62.51
2022-12-18T17:24:57.158Z,62.48
2022-12-18T17:27:28.817Z,62.51
2022-12-18T17:30:00.513Z,62.44
2022-12-18T17:32:32.164Z,62.41
2022-12-18T17:35:07.137Z,62.49
2022-12-18T17:37:39.179Z,62.48
2022-12-18T17:40:12.839Z,62.44
2022-12-18T17:42:44.509Z,62.39
2022-12-18T17:45:16.226Z,62.20
2022-12-18T17:47:47.845Z,62.33
2022-12-18T17:50:19.836Z,62.47
2022-12-18T17:52:51.603Z,62.30
2022-12-18T17:55:23.297Z,62.31
2022-12-18T17:57:55.736Z,62.20
2022-12-18T18:00:27.505Z,62.28
2022-12-18T18:02:59.589Z,62.04
2022-12-18T18:05:32.050Z,62.26
2022-12-18T18:08:07.511Z,62.12
2022-12-18T18:10:40.441Z,62.07
2022-12-18T18:13:46.664Z,62.10
2022-12-18T18:16:19.028Z,62.05
2022-12-18T18:18:50.687Z,62.14
2022-12-18T18:21:22.301Z,62.11
2022-12-18T18:23:54.548Z,62.15
2022-12-18T18:26:29.152Z,62.12
2022-12-18T18:29:03.030Z,62.13
2022-12-18T18:31:41.334Z,62.03
2022-12-18T18:34:17.147Z,62.05
2022-12-18T18:36:48.889Z,62.02
2022-12-18T18:39:20.985Z,62.06
2022-12-18T18:41:52.802Z,62.02
2022-12-18T18:44:26.284Z,61.77
2022-12-18T18:46:59.877Z,61.94
2022-12-18T18:49:33.085Z,61.72
2022-12-18T18:52:05.208Z,61.72
2022-12-18T18:54:36.828Z,61.56
2022-12-18T18:57:30.109Z,61.60
2022-12-18T19:00:01.991Z,61.40
2022-12-18T19:02:33.848Z,61.53
2022-12-18T19:05:06.237Z,61.68
2022-12-18T19:07:37.910Z,61.44
2022-12-18T19:10:11.273Z,61.47
2022-12-18T19:13:00.499Z,61.53
2022-12-18T19:15:32.109Z,61.55
2022-12-18T19:18:03.921Z,61.59
2022-12-18T19:20:35.952Z,61.44
2022-12-18T19:23:07.732Z,61.54
2022-12-18T19:25:42.095Z,61.21
2022-12-18T19:28:21.293Z,61.17
2022-12-18T19:30:58.823Z,61.09
2022-12-18T19:33:48.198Z,61.08
2022-12-18T19:36:23.258Z,61.24
2022-12-18T19:38:56.670Z,61.02
2022-12-18T19:41:31.317Z,61.15
2022-12-18T19:44:07.814Z,61.19
2022-12-18T19:46:40.699Z,61.05
2022-12-18T19:49:38.478Z,60.99
2022-12-18T19:52:05.493Z,61.08
2022-12-18T19:54:37.264Z,61.07
2022-12-18T19:57:11.464Z,60.89
2022-12-18T19:59:43.168Z,61.11
2022-12-18T20:02:16.689Z,60.93
2022-12-18T20:04:48.908Z,60.87
2022-12-18T20:07:20.580Z,60.58
2022-12-18T20:09:59.535Z,60.63
2022-12-18T20:12:34.177Z,60.80
2022-12-18T20:15:06.664Z,60.66
2022-12-18T20:17:39.164Z,60.75
2022-12-18T20:20:12.412Z,60.70
2022-12-18T20:22:45.092Z,60.78
2022-12-18T20:25:19.277Z,60.73
2022-12-18T20:27:50.971Z,60.57
2022-12-18T20:30:22.619Z,60.72
2022-12-18T20:32:54.303Z,60.57
2022-12-18T20:35:28.087Z,60.47
2022-12-18T20:38:00.753Z,60.23
2022-12-18T20:40:32.774Z,60.47
2022-12-18T20:43:04.501Z,60.46
2022-12-18T20:45:37.195Z,60.25
2022-12-18T20:48:11.492Z,60.40
2022-12-18T20:50:43.343Z,60.56
2022-12-18T20:53:14.997Z,60.63
2022-12-18T20:55:46.555Z,60.51
2022-12-18T20:58:18.683Z,60.41
2022-12-18T21:00:50.475Z,60.25
2022-12-18T21:03:22.218Z,60.43
2022-12-18T21:05:53.869Z,60.40
2022-12-18T21:08:25.431Z,60.32
2022-12-18T21:10:57.048Z,60.12
2022-12-18T21:13:28.989Z,60.16
2022-12-18T21:16:02.586Z,60.12
2022-12-18T21:18:35.011Z,60.27
2022-12-18T21:21:06.917Z,59.99
2022-12-18T21:23:38.597Z,60.16
2022-12-18T21:26:22.202Z,59.98
2022-12-18T21:28:58.094Z,60.14
2022-12-18T21:31:32.204Z,59.82
2022-12-18T21:34:04.632Z,60.00
2022-12-18T21:36:36.923Z,60.01
2022-12-18T21:39:08.559Z,60.06
2022-12-18T21:41:57.869Z,59.76
2022-12-18T21:44:29.598Z,59.91
2022-12-18T21:47:11.996Z,59.99
2022-12-18T21:49:53.588Z,59.78
2022-12-18T21:52:32.007Z,59.74
2022-12-18T21:55:09.600Z,59.80
2022-12-18T21:57:41.982Z,59.72
2022-12-18T22:00:18.388Z,59.75
2022-12-18T22:03:04.909Z,59.82
2022-12-18T22:05:43.204Z,59.75
2022-12-18T22:08:15.062Z,59.62
2022-12-18T22:10:46.892Z,59.39
2022-12-18T22:13:18.768Z,59.57
2022-12-18T22:15:50.617Z,59.59
2022-12-18T22:18:22.860Z,59.70
2022-12-18T22:21:04.274Z,59.56
2022-12-18T22:23:36.125Z,59.54
2022-12-18T22:26:07.745Z,59.54
2022-12-18T22:28:56.831Z,59.46
2022-12-18T22:31:28.535Z,59.37
2022-12-18T22:34:00.167Z,59.31
2022-12-18T22:36:38.165Z,59.37
2022-12-18T22:39:13.773Z,59.21
2022-12-18T22:41:45.502Z,59.35
2022-12-18T22:44:18.202Z,59.31
2022-12-18T22:47:05.409Z,59.36
2022-12-18T22:49:39.681Z,59.23
2022-12-18T22:52:12.579Z,59.15
2022-12-18T22:54:46.297Z,59.18
2022-12-18T22:57:17.901Z,59.04
2022-12-18T22:59:49.680Z,58.92
2022-12-18T23:02:21.586Z,59.14
2022-12-18T23:04:53.582Z,59.27
2022-12-18T23:07:25.277Z,59.35
2022-12-18T23:10:00.989Z,59.16
2022-12-18T23:12:32.917Z,59.19
2022-12-18T23:15:08.287Z,59.14
2022-12-18T23:17:40.008Z,59.22
2022-12-18T23:20:13.803Z,59.04
2022-12-18T23:22:45.451Z,58.96
2022-12-18T23:25:17.262Z,58.97
2022-12-18T23:27:48.947Z,59.14
2022-12-18T23:30:20.887Z,59.02
2022-12-18T23:32:52.566Z,59.13
2022-12-18T23:35:24.397Z,58.95
2022-12-18T23:38:00.004Z,59.03
2022-12-18T23:40:32.714Z,59.10
2022-12-18T23:43:04.358Z,58.94
2022-12-18T23:45:39.832Z,59.06
2022-12-18T23:48:11.408Z,58.95
2022-12-18T23:50:43.132Z,58.85
2022-12-18T23:53:15.180Z,58.99
2022-12-18T23:55:47.338Z,58.94
2022-12-18T23:58:21.759Z,58.94
